Paradise Park, California
Current Conditions -  °F | °C
As of 12:27 AM on Sunday 23 Nov 2014 (Local Time) from KWVI Reporting Station
Haze Haze  
Wind Chill: 50°   Ceiling: 300
Heat Index: 50°   Visibility: 3mi
Dew Point: 48°   Wind: 3mph
Humidity: 93%   Direction: 330°NNW
Pressure: 30.22"   Gusts: NA
Location:  37.0412°N, 122.124°W
Report Text: KWVI 230827Z AUTO 33003KT 3SM BR BKN003 10/09 A3022 RMK AO2 T01000089
Loading
Personal Weather Stations






























Interactive Weather Map New forecast layout! Learn more

10-Day Weather Forecast

Advertisements
Track Severe Weather on mobile